createdAt,value
2023-01-05T00:00:10.891Z,101
2023-01-05T00:01:10.108Z,101
2023-01-05T00:02:10.694Z,101
2023-01-05T00:03:10.000Z,101
2023-01-05T00:04:10.329Z,101
2023-01-05T00:05:08.796Z,101
2023-01-05T00:06:10.207Z,101
2023-01-05T00:07:10.434Z,104
2023-01-05T00:08:10.012Z,104
2023-01-05T00:09:10.308Z,104
2023-01-05T00:10:10.680Z,104
2023-01-05T00:11:10.073Z,104
2023-01-05T00:12:10.457Z,104
2023-01-05T00:13:10.533Z,104
2023-01-05T00:14:10.838Z,104
2023-01-05T00:15:09.002Z,104
2023-01-05T00:16:10.886Z,104
2023-01-05T00:17:09.868Z,104
2023-01-05T00:18:10.360Z,104
2023-01-05T00:19:10.354Z,104
2023-01-05T00:20:10.189Z,104
2023-01-05T00:21:10.379Z,104
2023-01-05T00:22:10.444Z,104
2023-01-05T00:23:10.211Z,104
2023-01-05T00:24:10.141Z,104
2023-01-05T00:25:19.247Z,104
2023-01-05T00:27:10.475Z,104
2023-01-05T00:28:09.764Z,104
2023-01-05T00:29:09.387Z,104
2023-01-05T00:30:10.360Z,104
2023-01-05T00:31:09.941Z,104
2023-01-05T00:32:10.216Z,104
2023-01-05T00:33:10.671Z,104
2023-01-05T00:34:10.289Z,104
2023-01-05T00:35:10.422Z,104
2023-01-05T00:36:09.895Z,104
2023-01-05T00:37:10.026Z,104
2023-01-05T00:38:10.348Z,104
2023-01-05T00:39:10.638Z,104
2023-01-05T00:40:09.823Z,104
2023-01-05T00:41:09.305Z,104
2023-01-05T00:42:10.383Z,104
2023-01-05T00:43:09.812Z,104
2023-01-05T00:44:10.543Z,104
2023-01-05T00:45:09.785Z,104
2023-01-05T00:46:10.680Z,104
2023-01-05T00:47:09.505Z,104
2023-01-05T00:48:10.140Z,104
2023-01-05T00:49:10.302Z,104
2023-01-05T00:50:10.463Z,104
2023-01-05T00:51:10.024Z,104
2023-01-05T00:52:10.017Z,104
2023-01-05T00:53:10.453Z,104
2023-01-05T00:54:10.842Z,104
2023-01-05T00:55:10.048Z,104
2023-01-05T00:56:10.890Z,104
2023-01-05T00:57:10.018Z,104
2023-01-05T00:58:10.338Z,104
2023-01-05T00:59:09.897Z,104
2023-01-05T01:00:10.313Z,104
2023-01-05T01:01:11.401Z,104
2023-01-05T01:02:11.624Z,104
2023-01-05T01:03:10.368Z,104
2023-01-05T01:04:10.533Z,104
2023-01-05T01:05:10.602Z,104
2023-01-05T01:06:09.939Z,104
2023-01-05T01:07:10.727Z,102
2023-01-05T01:08:10.491Z,102
2023-01-05T01:09:10.179Z,102
2023-01-05T01:10:09.904Z,102
2023-01-05T01:11:10.975Z,102
2023-01-05T01:12:10.077Z,102
2023-01-05T01:13:10.529Z,102
2023-01-05T01:14:09.919Z,102
2023-01-05T01:15:09.772Z,102
2023-01-05T01:16:11.035Z,102
2023-01-05T01:17:10.169Z,102
2023-01-05T01:18:10.035Z,102
2023-01-05T01:19:13.757Z,102
2023-01-05T01:20:10.418Z,102
2023-01-05T01:21:10.087Z,102
2023-01-05T01:22:09.681Z,102
2023-01-05T01:23:09.470Z,102
2023-01-05T01:24:10.019Z,102
2023-01-05T01:25:10.575Z,102
2023-01-05T01:26:09.920Z,102
2023-01-05T01:27:10.055Z,102
2023-01-05T01:28:09.837Z,102
2023-01-05T01:29:10.180Z,102
2023-01-05T01:30:10.103Z,102
2023-01-05T01:31:09.198Z,102
2023-01-05T01:32:10.576Z,102
2023-01-05T01:33:10.167Z,102
2023-01-05T01:34:10.523Z,102
2023-01-05T01:35:09.821Z,102
2023-01-05T01:36:10.777Z,102
2023-01-05T01:37:10.220Z,102
2023-01-05T01:38:10.484Z,102
2023-01-05T01:39:10.139Z,102
2023-01-05T01:40:10.160Z,102
2023-01-05T01:41:10.392Z,102
2023-01-05T01:42:10.115Z,102
2023-01-05T01:43:10.380Z,102
2023-01-05T01:44:10.575Z,102
2023-01-05T01:45:10.474Z,102
2023-01-05T01:46:10.146Z,102
2023-01-05T01:47:10.132Z,102
2023-01-05T01:48:10.790Z,102
2023-01-05T01:49:10.668Z,102
2023-01-05T01:50:10.649Z,102
2023-01-05T01:51:16.248Z,102
2023-01-05T01:52:10.252Z,102
2023-01-05T01:53:10.534Z,102
2023-01-05T01:54:09.701Z,102
2023-01-05T01:55:10.127Z,102
2023-01-05T01:56:09.910Z,102
2023-01-05T01:57:10.015Z,102
2023-01-05T01:58:10.218Z,102
2023-01-05T01:59:10.392Z,102
2023-01-05T02:00:10.347Z,102
2023-01-05T02:01:10.985Z,102
2023-01-05T02:02:10.923Z,102
2023-01-05T02:03:10.274Z,102
2023-01-05T02:04:10.714Z,102
2023-01-05T02:05:10.394Z,102
2023-01-05T02:06:10.178Z,102
2023-01-05T02:07:09.357Z,101
2023-01-05T02:08:09.443Z,101
2023-01-05T02:09:09.335Z,101
2023-01-05T02:10:09.885Z,101
2023-01-05T02:11:10.142Z,101
2023-01-05T02:12:10.582Z,101
2023-01-05T02:13:09.952Z,101
2023-01-05T02:14:10.040Z,101
2023-01-05T02:15:10.405Z,101
2023-01-05T02:16:10.570Z,101
2023-01-05T02:17:10.283Z,101
2023-01-05T02:18:10.328Z,101
2023-01-05T02:19:10.379Z,101
2023-01-05T02:20:10.755Z,101
2023-01-05T02:21:19.261Z,101
2023-01-05T02:22:09.940Z,101
2023-01-05T02:23:10.659Z,101
2023-01-05T02:24:09.799Z,101
2023-01-05T02:25:10.546Z,101
2023-01-05T02:26:09.793Z,101
2023-01-05T02:27:10.395Z,101
2023-01-05T02:28:10.780Z,101
2023-01-05T02:29:10.062Z,101
2023-01-05T02:30:10.330Z,101
2023-01-05T02:31:10.307Z,101
2023-01-05T02:32:10.533Z,101
2023-01-05T02:33:10.637Z,101
2023-01-05T02:34:09.715Z,101
2023-01-05T02:35:10.368Z,101
2023-01-05T02:36:10.034Z,101
2023-01-05T02:37:10.574Z,101
2023-01-05T02:38:10.030Z,101
2023-01-05T02:39:10.408Z,101
2023-01-05T02:40:10.307Z,101
2023-01-05T02:41:09.838Z,101
2023-01-05T02:42:10.272Z,101
2023-01-05T02:43:10.512Z,101
2023-01-05T02:44:10.921Z,101
2023-01-05T02:45:10.275Z,101
2023-01-05T02:46:10.159Z,101
2023-01-05T02:47:09.360Z,101
2023-01-05T02:48:10.199Z,101
2023-01-05T02:49:10.028Z,101
2023-01-05T02:50:10.590Z,101
2023-01-05T02:51:10.278Z,101
2023-01-05T02:52:10.616Z,101
2023-01-05T02:53:10.256Z,101
2023-01-05T02:54:10.312Z,101
2023-01-05T02:55:10.819Z,101
2023-01-05T02:56:10.476Z,101
2023-01-05T02:57:09.724Z,101
2023-01-05T02:58:10.006Z,101
2023-01-05T02:59:10.093Z,101
2023-01-05T03:00:10.167Z,101
2023-01-05T03:01:11.041Z,101
2023-01-05T03:02:11.277Z,101
2023-01-05T03:03:11.065Z,101
2023-01-05T03:04:10.643Z,101
2023-01-05T03:05:10.945Z,101
2023-01-05T03:06:10.176Z,101
2023-01-05T03:07:10.687Z,104
2023-01-05T03:08:10.830Z,104
2023-01-05T03:09:10.205Z,104
2023-01-05T03:10:10.277Z,104
2023-01-05T03:11:10.360Z,104
2023-01-05T03:12:09.321Z,104
2023-01-05T03:13:10.785Z,104
2023-01-05T03:14:10.576Z,104
2023-01-05T03:15:10.757Z,104
2023-01-05T03:16:10.773Z,104
2023-01-05T03:17:10.034Z,104
2023-01-05T03:18:10.244Z,104
2023-01-05T03:19:10.418Z,104
2023-01-05T03:20:10.476Z,104
2023-01-05T03:21:10.727Z,104
2023-01-05T03:22:09.603Z,104
2023-01-05T03:23:10.222Z,104
2023-01-05T03:24:10.827Z,104
2023-01-05T03:25:09.847Z,104
2023-01-05T03:26:10.005Z,104
2023-01-05T03:27:10.021Z,104
2023-01-05T03:28:10.489Z,104
2023-01-05T03:29:10.480Z,104
2023-01-05T03:30:10.248Z,104
2023-01-05T03:31:10.562Z,104
2023-01-05T03:32:10.199Z,104
2023-01-05T03:33:10.594Z,104
2023-01-05T03:34:10.258Z,104
2023-01-05T03:35:09.933Z,104
2023-01-05T03:36:10.205Z,104
2023-01-05T03:37:09.806Z,104
2023-01-05T03:38:17.748Z,104
2023-01-05T03:39:10.118Z,104
2023-01-05T03:40:10.667Z,104
2023-01-05T03:41:10.456Z,104
2023-01-05T03:42:10.013Z,104
2023-01-05T03:43:10.073Z,104
2023-01-05T03:44:10.149Z,104
2023-01-05T03:45:10.703Z,104
2023-01-05T03:46:10.608Z,104
2023-01-05T03:47:10.462Z,104
2023-01-05T03:48:10.851Z,104
2023-01-05T03:49:10.275Z,104
2023-01-05T03:50:09.511Z,104
2023-01-05T03:51:10.077Z,104
2023-01-05T03:52:09.936Z,104
2023-01-05T03:53:10.023Z,104
2023-01-05T03:54:10.555Z,104
2023-01-05T03:55:10.023Z,104
2023-01-05T03:56:10.548Z,104
2023-01-05T03:57:10.030Z,104
2023-01-05T03:58:10.204Z,104
2023-01-05T03:59:10.471Z,104
2023-01-05T04:00:10.155Z,104
2023-01-05T04:01:10.408Z,104
2023-01-05T04:02:11.508Z,104
2023-01-05T04:03:10.342Z,104
2023-01-05T04:04:10.304Z,104
2023-01-05T04:05:10.591Z,104
2023-01-05T04:06:10.561Z,104
2023-01-05T04:07:10.368Z,104
2023-01-05T04:08:10.208Z,104
2023-01-05T04:09:10.723Z,104
2023-01-05T04:10:09.954Z,104
2023-01-05T04:11:10.258Z,104
2023-01-05T04:12:10.727Z,104
2023-01-05T04:13:10.238Z,104
2023-01-05T04:14:09.595Z,104
2023-01-05T04:15:10.706Z,104
2023-01-05T04:16:09.308Z,104
2023-01-05T04:17:10.031Z,104
2023-01-05T04:18:10.419Z,104
2023-01-05T04:19:10.683Z,104
2023-01-05T04:20:10.055Z,104
2023-01-05T04:21:10.325Z,104
2023-01-05T04:22:10.559Z,104
2023-01-05T04:23:10.809Z,104
2023-01-05T04:24:10.206Z,104
2023-01-05T04:25:10.744Z,104
2023-01-05T04:26:10.142Z,104
2023-01-05T04:27:09.006Z,104
2023-01-05T04:28:10.022Z,104
2023-01-05T04:29:10.806Z,104
2023-01-05T04:30:10.450Z,104
2023-01-05T04:31:10.726Z,104
2023-01-05T04:32:10.534Z,104
2023-01-05T04:33:10.236Z,104
2023-01-05T04:34:10.378Z,104
2023-01-05T04:35:18.783Z,104
2023-01-05T04:36:10.458Z,104
2023-01-05T04:37:10.806Z,104
2023-01-05T04:38:10.860Z,104
2023-01-05T04:39:10.030Z,104
2023-01-05T04:40:10.375Z,104
2023-01-05T04:41:10.206Z,104
2023-01-05T04:42:10.191Z,104
2023-01-05T04:43:10.698Z,104
2023-01-05T04:44:10.607Z,104
2023-01-05T04:45:10.894Z,104
2023-01-05T04:46:11.008Z,104
2023-01-05T04:47:10.669Z,104
2023-01-05T04:48:10.560Z,104
2023-01-05T04:49:10.245Z,104
2023-01-05T04:50:10.796Z,104
2023-01-05T04:51:10.276Z,104
2023-01-05T04:52:09.559Z,104
2023-01-05T04:53:10.416Z,104
2023-01-05T04:54:10.855Z,104
2023-01-05T04:55:10.087Z,104
2023-01-05T04:56:10.176Z,104
2023-01-05T04:57:10.891Z,104
2023-01-05T04:58:18.513Z,104
2023-01-05T04:59:10.108Z,104
2023-01-05T05:00:10.919Z,104
2023-01-05T05:01:11.179Z,104
2023-01-05T05:02:10.994Z,104
2023-01-05T05:03:11.149Z,104
2023-01-05T05:04:09.810Z,104
2023-01-05T05:05:10.408Z,104
2023-01-05T05:06:10.154Z,104
2023-01-05T05:07:10.648Z,101
2023-01-05T05:08:10.746Z,101
2023-01-05T05:09:10.086Z,101
2023-01-05T05:10:10.293Z,101
2023-01-05T05:11:10.109Z,101
2023-01-05T05:12:10.513Z,101
2023-01-05T05:13:10.592Z,101
2023-01-05T05:14:09.999Z,101
2023-01-05T05:15:10.367Z,101
2023-01-05T05:16:11.000Z,101
2023-01-05T05:17:09.154Z,101
2023-01-05T05:18:17.066Z,101
2023-01-05T05:19:09.720Z,101
2023-01-05T05:20:10.322Z,101
2023-01-05T05:21:10.418Z,101
2023-01-05T05:22:10.769Z,101
2023-01-05T05:23:09.829Z,101
2023-01-05T05:24:10.847Z,101
2023-01-05T05:25:10.027Z,101
2023-01-05T05:26:10.583Z,101
2023-01-05T05:27:10.574Z,101
2023-01-05T05:28:10.465Z,101
2023-01-05T05:29:09.383Z,101
2023-01-05T05:30:10.242Z,101
2023-01-05T05:31:10.918Z,101
2023-01-05T05:32:09.851Z,101
2023-01-05T05:33:10.039Z,101
2023-01-05T05:34:10.859Z,101
2023-01-05T05:35:09.829Z,101
2023-01-05T05:36:10.367Z,101
2023-01-05T05:37:10.750Z,101
2023-01-05T05:38:10.310Z,101
2023-01-05T05:39:10.350Z,101
2023-01-05T05:40:10.043Z,101
2023-01-05T05:41:09.191Z,101
2023-01-05T05:42:10.655Z,101
2023-01-05T05:43:09.572Z,101
2023-01-05T05:44:10.368Z,101
2023-01-05T05:45:10.834Z,101
2023-01-05T05:46:10.172Z,101
2023-01-05T05:47:10.766Z,101
2023-01-05T05:48:10.090Z,101
2023-01-05T05:49:09.384Z,101
2023-01-05T05:50:10.753Z,101
2023-01-05T05:51:09.859Z,101
2023-01-05T05:52:10.101Z,101
2023-01-05T05:53:10.261Z,101
2023-01-05T05:54:10.674Z,101
2023-01-05T05:55:10.021Z,101
2023-01-05T05:56:09.721Z,101
2023-01-05T05:57:10.073Z,101
2023-01-05T05:58:10.423Z,101
2023-01-05T05:59:10.509Z,101
2023-01-05T06:00:10.309Z,101
2023-01-05T06:01:11.074Z,101
2023-01-05T06:02:11.291Z,101
2023-01-05T06:03:11.198Z,101
2023-01-05T06:04:10.619Z,101
2023-01-05T06:05:10.972Z,101
2023-01-05T06:06:10.473Z,101
2023-01-05T06:07:10.786Z,101
2023-01-05T06:08:10.210Z,103
2023-01-05T06:09:10.006Z,103
2023-01-05T06:10:10.381Z,103
2023-01-05T06:11:10.831Z,103
2023-01-05T06:12:10.993Z,103
2023-01-05T06:13:10.091Z,103
2023-01-05T06:14:10.139Z,103
2023-01-05T06:15:10.363Z,103
2023-01-05T06:16:11.047Z,103
2023-01-05T06:17:10.582Z,103
2023-01-05T06:18:10.162Z,103
2023-01-05T06:19:10.434Z,103
2023-01-05T06:20:10.149Z,103
2023-01-05T06:21:10.591Z,103
2023-01-05T06:22:10.490Z,103
2023-01-05T06:23:08.582Z,103
2023-01-05T06:24:09.950Z,103
2023-01-05T06:25:10.423Z,103
2023-01-05T06:26:09.767Z,103
2023-01-05T06:27:10.571Z,103
2023-01-05T06:28:10.376Z,103
2023-01-05T06:29:09.932Z,103
2023-01-05T06:30:10.465Z,103
2023-01-05T06:31:10.380Z,103
2023-01-05T06:32:10.391Z,103
2023-01-05T06:33:10.628Z,103
2023-01-05T06:34:10.017Z,103
2023-01-05T06:35:10.572Z,103
2023-01-05T06:36:10.081Z,103
2023-01-05T06:37:11.006Z,103
2023-01-05T06:38:10.856Z,103
2023-01-05T06:39:10.227Z,103
2023-01-05T06:40:10.454Z,103
2023-01-05T06:41:10.094Z,103
2023-01-05T06:42:10.988Z,103
2023-01-05T06:43:10.246Z,103
2023-01-05T06:44:10.478Z,103
2023-01-05T06:45:10.767Z,103
2023-01-05T06:46:10.357Z,103
2023-01-05T06:47:10.274Z,103
2023-01-05T06:48:10.566Z,103
2023-01-05T06:49:10.755Z,103
2023-01-05T06:50:10.297Z,103
2023-01-05T06:51:10.750Z,103
2023-01-05T06:52:18.719Z,103
2023-01-05T06:53:10.126Z,103
2023-01-05T06:54:10.154Z,103
2023-01-05T06:55:10.337Z,103
2023-01-05T06:56:09.761Z,103
2023-01-05T06:57:10.666Z,103
2023-01-05T06:58:10.431Z,103
2023-01-05T06:59:10.728Z,103
2023-01-05T07:00:10.592Z,103
2023-01-05T07:01:10.914Z,103
2023-01-05T07:02:10.813Z,103
2023-01-05T07:03:10.863Z,103
2023-01-05T07:04:10.703Z,103
2023-01-05T07:05:10.059Z,103
2023-01-05T07:06:17.326Z,103
2023-01-05T07:07:10.212Z,100
2023-01-05T07:08:10.293Z,100
2023-01-05T07:09:10.122Z,100
2023-01-05T07:10:10.374Z,100
2023-01-05T07:11:10.335Z,100
2023-01-05T07:12:10.094Z,100
2023-01-05T07:13:10.117Z,100
2023-01-05T07:14:10.387Z,100
2023-01-05T07:15:10.484Z,100
2023-01-05T07:16:11.084Z,100
2023-01-05T07:17:09.828Z,100
2023-01-05T07:18:10.166Z,100
2023-01-05T07:19:10.322Z,100
2023-01-05T07:20:10.540Z,100
2023-01-05T07:21:10.586Z,100
2023-01-05T07:22:10.063Z,100
2023-01-05T07:23:10.882Z,100
2023-01-05T07:24:09.829Z,100
2023-01-05T07:25:10.207Z,100
2023-01-05T07:26:10.562Z,100
2023-01-05T07:27:17.583Z,100
2023-01-05T07:28:10.278Z,100
2023-01-05T07:29:10.906Z,100
2023-01-05T07:30:10.233Z,100
2023-01-05T07:31:10.315Z,100
2023-01-05T07:32:10.432Z,100
2023-01-05T07:33:10.563Z,100
2023-01-05T07:34:10.846Z,100
2023-01-05T07:35:10.252Z,100
2023-01-05T07:36:10.421Z,100
2023-01-05T07:37:10.942Z,100
2023-01-05T07:38:09.989Z,100
2023-01-05T07:39:10.684Z,100
2023-01-05T07:40:09.974Z,100
2023-01-05T07:41:10.135Z,100
2023-01-05T07:42:10.444Z,100
2023-01-05T07:43:10.122Z,100
2023-01-05T07:44:10.493Z,100
2023-01-05T07:45:10.115Z,100
2023-01-05T07:46:11.000Z,100
2023-01-05T07:47:10.647Z,100
2023-01-05T07:48:09.780Z,100
2023-01-05T07:49:09.808Z,100
2023-01-05T07:50:10.418Z,100
2023-01-05T07:51:10.382Z,100
2023-01-05T07:52:10.838Z,100
2023-01-05T07:53:09.865Z,100
2023-01-05T07:54:10.674Z,100
2023-01-05T07:55:09.736Z,100
2023-01-05T07:56:09.907Z,100
2023-01-05T07:57:08.975Z,100
2023-01-05T07:58:10.694Z,100
2023-01-05T07:59:10.369Z,100
2023-01-05T08:00:10.259Z,100
2023-01-05T08:01:10.965Z,100
2023-01-05T08:02:11.434Z,100
2023-01-05T08:03:10.544Z,100
2023-01-05T08:04:10.510Z,100
2023-01-05T08:05:10.562Z,100
2023-01-05T08:06:10.035Z,100
2023-01-05T08:07:10.281Z,103
2023-01-05T08:08:10.727Z,103
2023-01-05T08:09:10.399Z,103
2023-01-05T08:10:10.603Z,103
2023-01-05T08:11:10.728Z,103
2023-01-05T08:12:09.775Z,103
2023-01-05T08:13:10.402Z,103
2023-01-05T08:14:09.761Z,103
2023-01-05T08:15:10.934Z,103
2023-01-05T08:16:11.098Z,103
2023-01-05T08:17:10.316Z,103
2023-01-05T08:18:10.338Z,103
2023-01-05T08:19:17.548Z,103
2023-01-05T08:20:10.063Z,103
2023-01-05T08:21:10.881Z,103
2023-01-05T08:22:10.241Z,103
2023-01-05T08:23:10.661Z,103
2023-01-05T08:24:10.135Z,103
2023-01-05T08:25:10.438Z,103
2023-01-05T08:26:10.770Z,103
2023-01-05T08:27:10.387Z,103
2023-01-05T08:28:10.757Z,103
2023-01-05T08:29:10.363Z,103
2023-01-05T08:30:10.093Z,103
2023-01-05T08:31:10.412Z,103
2023-01-05T08:32:11.081Z,103
2023-01-05T08:33:09.754Z,103
2023-01-05T08:34:10.737Z,103
2023-01-05T08:35:09.848Z,103
2023-01-05T08:36:10.460Z,103
2023-01-05T08:37:09.857Z,103
2023-01-05T08:38:10.969Z,103
2023-01-05T08:39:10.254Z,103
2023-01-05T08:40:10.349Z,103
2023-01-05T08:41:10.477Z,103
2023-01-05T08:42:11.342Z,103
2023-01-05T08:43:10.157Z,103
2023-01-05T08:44:10.645Z,103
2023-01-05T08:45:09.805Z,103
2023-01-05T08:46:10.400Z,103
2023-01-05T08:47:10.384Z,103
2023-01-05T08:48:10.255Z,103
2023-01-05T08:49:10.654Z,103
2023-01-05T08:50:10.316Z,103
2023-01-05T08:51:10.500Z,103
2023-01-05T08:52:10.115Z,103
2023-01-05T08:53:09.881Z,103
2023-01-05T08:54:10.082Z,103
2023-01-05T08:55:10.766Z,103
2023-01-05T08:56:10.034Z,103
2023-01-05T08:57:09.899Z,103
2023-01-05T08:58:10.036Z,103
2023-01-05T08:59:10.030Z,103
2023-01-05T09:00:10.390Z,103
2023-01-05T09:01:10.221Z,103
2023-01-05T09:02:11.301Z,103
2023-01-05T09:03:11.147Z,103
2023-01-05T09:04:10.834Z,103
2023-01-05T09:05:10.578Z,103
2023-01-05T09:06:10.311Z,103
2023-01-05T09:07:10.482Z,106
2023-01-05T09:08:10.143Z,106
2023-01-05T09:09:10.485Z,106
2023-01-05T09:10:09.885Z,106
2023-01-05T09:11:10.722Z,106
2023-01-05T09:12:10.447Z,106
2023-01-05T09:13:10.211Z,106
2023-01-05T09:14:10.602Z,106
2023-01-05T09:15:10.889Z,106
2023-01-05T09:16:10.730Z,106
2023-01-05T09:17:18.526Z,106
2023-01-05T09:18:10.656Z,106
2023-01-05T09:19:10.874Z,106
2023-01-05T09:20:10.136Z,106
2023-01-05T09:21:10.109Z,106
2023-01-05T09:22:10.302Z,106
2023-01-05T09:23:10.203Z,106
2023-01-05T09:24:09.001Z,106
2023-01-05T09:25:10.224Z,106
2023-01-05T09:26:10.745Z,106
2023-01-05T09:27:09.881Z,106
2023-01-05T09:28:10.174Z,106
2023-01-05T09:29:10.305Z,106
2023-01-05T09:30:10.177Z,106
2023-01-05T09:31:10.855Z,106
2023-01-05T09:32:10.403Z,106
2023-01-05T09:33:10.915Z,106
2023-01-05T09:34:10.631Z,106
2023-01-05T09:35:10.596Z,106
2023-01-05T09:36:10.225Z,106
2023-01-05T09:37:10.038Z,106
2023-01-05T09:38:10.251Z,106
2023-01-05T09:39:10.575Z,106
2023-01-05T09:40:10.645Z,106
2023-01-05T09:41:10.105Z,106
2023-01-05T09:42:08.967Z,106
2023-01-05T09:43:10.069Z,106
2023-01-05T09:44:10.723Z,106
2023-01-05T09:45:11.149Z,106
2023-01-05T09:46:10.484Z,106
2023-01-05T09:47:09.975Z,106
2023-01-05T09:48:10.214Z,106
2023-01-05T09:49:10.440Z,106
2023-01-05T09:50:09.778Z,106
2023-01-05T09:51:10.169Z,106
2023-01-05T09:52:10.514Z,106
2023-01-05T09:53:09.757Z,106
2023-01-05T09:54:10.358Z,106
2023-01-05T09:55:10.046Z,106
2023-01-05T09:56:10.001Z,106
2023-01-05T09:57:19.043Z,106
2023-01-05T09:58:10.416Z,106
2023-01-05T09:59:10.164Z,106
2023-01-05T10:00:10.838Z,106
2023-01-05T10:01:11.213Z,106
2023-01-05T10:02:10.428Z,106
2023-01-05T10:03:13.074Z,106
2023-01-05T10:05:11.568Z,106
2023-01-05T10:06:09.882Z,106
2023-01-05T10:07:09.782Z,110
2023-01-05T10:08:10.188Z,110
2023-01-05T10:09:10.612Z,110
2023-01-05T10:10:10.600Z,110
2023-01-05T10:11:10.342Z,110
2023-01-05T10:12:10.599Z,110
2023-01-05T10:13:12.010Z,110
2023-01-05T10:14:10.804Z,110
2023-01-05T10:15:10.226Z,110
2023-01-05T10:16:10.549Z,110
2023-01-05T10:17:49.984Z,110
2023-01-05T10:19:09.071Z,110
2023-01-05T10:20:10.173Z,110
2023-01-05T10:21:09.935Z,110
2023-01-05T10:22:10.463Z,110
2023-01-05T10:23:10.720Z,110
2023-01-05T10:24:09.935Z,110
2023-01-05T10:25:09.693Z,110
2023-01-05T10:26:09.965Z,110
2023-01-05T10:27:40.366Z,110
2023-01-05T10:29:10.910Z,110
2023-01-05T10:30:09.931Z,110
2023-01-05T10:31:10.982Z,110
2023-01-05T10:32:10.133Z,110
2023-01-05T10:33:59.113Z,110
2023-01-05T10:34:20.708Z,110
2023-01-05T10:36:00.523Z,110
2023-01-05T10:37:08.723Z,110
2023-01-05T10:38:10.086Z,110
2023-01-05T10:39:09.065Z,110
2023-01-05T10:40:10.252Z,110
2023-01-05T10:41:10.493Z,110
2023-01-05T10:42:10.778Z,110
2023-01-05T10:43:10.267Z,110
2023-01-05T10:44:10.614Z,110
2023-01-05T10:45:10.717Z,110
2023-01-05T10:46:56.426Z,110
2023-01-05T10:48:10.157Z,110
2023-01-05T10:49:09.734Z,110
2023-01-05T10:50:09.314Z,110
2023-01-05T10:51:10.303Z,110
2023-01-05T10:52:10.100Z,110
2023-01-05T10:53:10.690Z,110
2023-01-05T10:54:10.815Z,110
2023-01-05T10:55:09.975Z,110
2023-01-05T10:56:09.795Z,110
2023-01-05T10:57:09.974Z,110
2023-01-05T10:58:10.259Z,110
2023-01-05T10:59:10.478Z,110
2023-01-05T11:00:11.284Z,110
2023-01-05T11:01:11.398Z,110
2023-01-05T11:02:10.322Z,110
2023-01-05T11:03:10.613Z,110
2023-01-05T11:04:42.496Z,110
2023-01-05T11:06:10.623Z,110
2023-01-05T11:07:10.397Z,112
2023-01-05T11:08:10.869Z,112
2023-01-05T11:09:10.135Z,112
2023-01-05T11:10:10.419Z,112
2023-01-05T11:11:10.650Z,112
2023-01-05T11:12:09.773Z,112
2023-01-05T11:13:10.119Z,112
2023-01-05T11:14:10.986Z,112
2023-01-05T11:15:10.457Z,112
2023-01-05T11:16:10.362Z,112
2023-01-05T11:17:10.448Z,112
2023-01-05T11:18:10.290Z,112
2023-01-05T11:19:10.210Z,112
2023-01-05T11:20:10.331Z,112
2023-01-05T11:21:10.446Z,112
2023-01-05T11:22:11.533Z,112
2023-01-05T11:23:10.544Z,112
2023-01-05T11:24:10.096Z,112
2023-01-05T11:25:09.057Z,112
2023-01-05T11:26:10.633Z,112
2023-01-05T11:27:10.767Z,112
2023-01-05T11:28:13.699Z,112
2023-01-05T11:29:10.567Z,112
2023-01-05T11:30:10.852Z,112
2023-01-05T11:31:10.572Z,112
2023-01-05T11:32:10.296Z,112
2023-01-05T11:33:19.905Z,112
2023-01-05T11:34:10.354Z,112
2023-01-05T11:35:10.694Z,112
2023-01-05T11:36:09.381Z,112
2023-01-05T11:37:16.257Z,112
2023-01-05T11:38:10.491Z,112
2023-01-05T11:39:10.225Z,112
2023-01-05T11:40:10.831Z,112
2023-01-05T11:41:10.041Z,112
2023-01-05T11:42:10.899Z,112
2023-01-05T11:43:10.038Z,112
2023-01-05T11:44:10.603Z,112
2023-01-05T11:45:09.864Z,112
2023-01-05T11:46:10.655Z,112
2023-01-05T11:47:10.356Z,112
2023-01-05T11:48:10.552Z,112
2023-01-05T11:49:09.590Z,112
2023-01-05T11:50:17.235Z,112
2023-01-05T11:51:10.768Z,112
2023-01-05T11:52:10.628Z,112
2023-01-05T11:53:09.809Z,112
2023-01-05T11:54:10.710Z,112
2023-01-05T11:55:10.038Z,112
2023-01-05T11:56:10.178Z,112
2023-01-05T11:57:10.345Z,112
2023-01-05T11:58:10.633Z,112
2023-01-05T11:59:10.848Z,112
2023-01-05T12:00:10.266Z,112
2023-01-05T12:01:10.858Z,112
2023-01-05T12:02:10.204Z,112
2023-01-05T12:03:11.001Z,112
2023-01-05T12:04:11.140Z,112
2023-01-05T12:05:10.967Z,112
2023-01-05T12:06:10.036Z,112
2023-01-05T12:07:10.215Z,103
2023-01-05T12:08:10.787Z,103
2023-01-05T12:09:11.086Z,103
2023-01-05T12:10:10.279Z,103
2023-01-05T12:11:10.271Z,103
2023-01-05T12:12:10.649Z,103
2023-01-05T12:13:10.090Z,103
2023-01-05T12:14:09.063Z,103
2023-01-05T12:15:08.801Z,103
2023-01-05T12:16:11.586Z,103
2023-01-05T12:17:10.232Z,103
2023-01-05T12:18:10.738Z,103
2023-01-05T12:19:09.929Z,103
2023-01-05T12:20:10.388Z,103
2023-01-05T12:21:10.739Z,103
2023-01-05T12:22:11.196Z,103
2023-01-05T12:23:10.501Z,103
2023-01-05T12:24:10.783Z,103
2023-01-05T12:25:10.315Z,103
2023-01-05T12:26:10.884Z,103
2023-01-05T12:27:10.788Z,103
2023-01-05T12:28:19.700Z,103
2023-01-05T12:35:09.902Z,103
2023-01-05T12:36:10.214Z,103
2023-01-05T12:37:10.350Z,103
2023-01-05T12:38:09.540Z,103
2023-01-05T12:39:08.996Z,103
2023-01-05T12:40:11.016Z,103
2023-01-05T12:41:10.257Z,103
2023-01-05T12:42:10.721Z,103
2023-01-05T12:43:09.983Z,103
2023-01-05T12:44:10.607Z,103
2023-01-05T12:45:10.350Z,103
2023-01-05T12:46:10.297Z,103
2023-01-05T12:47:11.021Z,103
2023-01-05T12:48:10.284Z,103
2023-01-05T12:49:10.669Z,103
2023-01-05T12:50:09.494Z,103
2023-01-05T12:51:10.662Z,103
2023-01-05T12:52:15.259Z,103
2023-01-05T12:53:09.808Z,103
2023-01-05T12:54:10.008Z,103
2023-01-05T12:55:10.064Z,103
2023-01-05T12:56:10.754Z,103
2023-01-05T12:57:10.659Z,103
2023-01-05T12:58:10.044Z,103
2023-01-05T12:59:10.642Z,103
2023-01-05T13:00:09.964Z,103
2023-01-05T13:01:11.075Z,103
2023-01-05T13:02:10.981Z,103
2023-01-05T13:03:10.873Z,103
2023-01-05T13:04:10.608Z,103
2023-01-05T13:05:10.982Z,103
2023-01-05T13:06:09.868Z,103
2023-01-05T13:07:10.211Z,102
2023-01-05T13:08:10.037Z,102
2023-01-05T13:09:10.086Z,102
2023-01-05T13:10:11.772Z,102
2023-01-05T13:11:10.227Z,102
2023-01-05T13:12:10.529Z,102
2023-01-05T13:13:10.626Z,102
2023-01-05T13:14:10.523Z,102
2023-01-05T13:15:09.754Z,102
2023-01-05T13:16:10.832Z,102
2023-01-05T13:17:10.627Z,102
2023-01-05T13:18:10.425Z,102
2023-01-05T13:19:09.876Z,102
2023-01-05T13:20:09.962Z,102
2023-01-05T13:21:19.740Z,102
2023-01-05T13:23:10.159Z,102
2023-01-05T13:24:10.204Z,102
2023-01-05T13:25:09.833Z,102
2023-01-05T13:26:10.426Z,102
2023-01-05T13:27:09.921Z,102
2023-01-05T13:28:10.502Z,102
2023-01-05T13:29:10.437Z,102
2023-01-05T13:30:10.061Z,102
2023-01-05T13:31:10.793Z,102
2023-01-05T13:32:10.739Z,102
2023-01-05T13:33:10.153Z,102
2023-01-05T13:34:10.040Z,102
2023-01-05T13:35:10.287Z,102
2023-01-05T13:36:10.466Z,102
2023-01-05T13:37:10.276Z,102
2023-01-05T13:38:10.043Z,102
2023-01-05T13:39:09.795Z,102
2023-01-05T13:40:10.274Z,102
2023-01-05T13:41:10.149Z,102
2023-01-05T13:42:09.726Z,102
2023-01-05T13:43:10.043Z,102
2023-01-05T13:44:10.287Z,102
2023-01-05T13:45:10.274Z,102
2023-01-05T13:46:10.665Z,102
2023-01-05T13:47:09.846Z,102
2023-01-05T13:48:20.093Z,102
2023-01-05T13:49:13.098Z,102
2023-01-05T13:50:10.180Z,102
2023-01-05T13:51:09.117Z,102
2023-01-05T13:52:10.759Z,102
2023-01-05T13:53:10.095Z,102
2023-01-05T13:54:14.001Z,102
2023-01-05T13:55:25.620Z,102
2023-01-05T13:57:10.236Z,102
2023-01-05T13:58:10.496Z,102
2023-01-05T13:59:44.113Z,102
2023-01-05T14:00:18.380Z,102
2023-01-05T14:02:10.898Z,102